createdAt,value
2024-04-07T00:02:47.585Z,12.5446
2024-04-07T00:12:59.145Z,12.5175
2024-04-07T00:23:10.590Z,12.4915
2024-04-07T00:33:21.816Z,12.4658
2024-04-07T00:43:33.209Z,12.4492
2024-04-07T00:53:44.110Z,12.4242
2024-04-07T01:03:54.837Z,12.3988
2024-04-07T01:14:05.992Z,12.3752
2024-04-07T01:24:16.841Z,12.3533
2024-04-07T01:34:27.706Z,12.3242
2024-04-07T01:44:39.259Z,12.3056
2024-04-07T01:54:50.770Z,12.2798
2024-04-07T02:05:01.429Z,12.2587
2024-04-07T02:15:12.814Z,12.2367
2024-04-07T02:25:23.924Z,12.2090
2024-04-07T02:35:34.843Z,12.1879
2024-04-07T02:45:45.924Z,12.1604
2024-04-07T02:55:57.399Z,12.1398
2024-04-07T03:06:08.443Z,12.1196
2024-04-07T03:16:19.901Z,12.0931
2024-04-07T03:26:30.914Z,12.0646
2024-04-07T03:36:42.444Z,12.0415
2024-04-07T03:46:53.122Z,12.0190
2024-04-07T03:57:04.211Z,11.9985
2024-04-07T04:07:15.244Z,11.9750
2024-04-07T04:17:26.587Z,11.9469
2024-04-07T04:27:37.449Z,11.9244
2024-04-07T04:37:48.137Z,11.8996
2024-04-07T04:47:59.241Z,11.8808
2024-04-07T04:58:10.268Z,11.8571
2024-04-07T05:08:21.043Z,11.8429
2024-04-07T05:18:32.317Z,11.8194
2024-04-07T05:28:43.184Z,11.7965
2024-04-07T05:38:54.996Z,11.7740
2024-04-07T05:49:06.476Z,11.7537
2024-04-07T05:59:17.516Z,11.7371
2024-04-07T06:09:28.916Z,11.7246
2024-04-07T06:19:39.821Z,11.6977
2024-04-07T06:29:51.545Z,11.6804
2024-04-07T06:40:02.583Z,11.6577
2024-04-07T06:50:13.953Z,11.6408
2024-04-07T07:00:24.940Z,11.6267
2024-04-07T07:10:36.459Z,11.6058
2024-04-07T07:20:48.196Z,11.5908
2024-04-07T07:30:59.928Z,11.5785
2024-04-07T07:41:11.596Z,11.5658
2024-04-07T07:51:23.143Z,11.5529
2024-04-07T08:01:36.401Z,11.5446
2024-04-07T08:11:49.303Z,11.5346
2024-04-07T08:22:00.406Z,11.5208
2024-04-07T08:32:11.402Z,11.5148
2024-04-07T08:42:23.015Z,11.5138
2024-04-07T08:52:34.211Z,11.5098
2024-04-07T09:02:45.351Z,11.5058
2024-04-07T09:12:56.972Z,11.5067
2024-04-07T09:23:07.725Z,11.5060
2024-04-07T09:33:19.296Z,11.5092
2024-04-07T09:43:30.950Z,11.5208
2024-04-07T09:53:42.591Z,11.5294
2024-04-07T10:03:53.607Z,11.5408
2024-04-07T10:14:04.519Z,11.5515
2024-04-07T10:24:15.650Z,11.5700
2024-04-07T10:34:26.490Z,11.5858
2024-04-07T10:44:37.963Z,11.6031
2024-04-07T10:54:49.493Z,11.6310
2024-04-07T11:05:00.390Z,11.6544
2024-04-07T11:15:11.982Z,11.6767
2024-04-07T11:25:22.816Z,11.7067
2024-04-07T11:35:33.680Z,11.7315
2024-04-07T11:45:44.192Z,11.7685
2024-04-07T11:55:55.738Z,11.8013
2024-04-07T12:06:07.289Z,11.8375
2024-04-07T12:16:17.834Z,11.8729
2024-04-07T12:26:29.388Z,11.9075
2024-04-07T12:36:41.282Z,11.9425
2024-04-07T12:46:54.045Z,11.9833
2024-04-07T12:57:04.938Z,12.0323
2024-04-07T13:07:16.704Z,12.0677
2024-04-07T13:17:28.384Z,12.1150
2024-04-07T13:27:40.027Z,12.1571
2024-04-07T13:37:51.640Z,12.1987
2024-04-07T13:48:03.174Z,12.2423
2024-04-07T13:58:14.914Z,12.2954
2024-04-07T14:08:26.556Z,12.3406
2024-04-07T14:18:37.312Z,12.3896
2024-04-07T14:28:48.591Z,12.4377
2024-04-07T14:38:59.841Z,12.4854
2024-04-07T14:49:11.402Z,12.5304
2024-04-07T14:59:22.350Z,12.5808
2024-04-07T15:09:33.165Z,12.6315
2024-04-07T15:19:44.843Z,12.6798
2024-04-07T15:29:55.550Z,12.7273
2024-04-07T15:40:08.915Z,12.7760
2024-04-07T15:50:20.060Z,12.8156
2024-04-07T16:00:31.598Z,12.8644
2024-04-07T16:10:42.288Z,12.9038
2024-04-07T16:20:55.485Z,12.9431
2024-04-07T16:31:06.963Z,12.9823
2024-04-07T16:41:18.051Z,13.0181
2024-04-07T16:51:28.912Z,13.0502
2024-04-07T17:01:40.483Z,13.0800
2024-04-07T17:11:52.213Z,13.1083
2024-04-07T17:22:03.196Z,13.1296
2024-04-07T17:32:14.032Z,13.1650
2024-04-07T17:42:24.923Z,13.1796
2024-04-07T17:52:36.467Z,13.2033
2024-04-07T18:02:48.248Z,13.2210
2024-04-07T18:12:59.626Z,13.2327
2024-04-07T18:23:10.486Z,13.2506
2024-04-07T18:33:21.629Z,13.2617
2024-04-07T18:43:32.811Z,13.2656
2024-04-07T18:53:44.026Z,13.2806
2024-04-07T19:03:54.948Z,13.2821
2024-04-07T19:14:06.597Z,13.2871
2024-04-07T19:24:17.894Z,13.2863
2024-04-07T19:34:29.060Z,13.2812
2024-04-07T19:44:40.202Z,13.2842
2024-04-07T19:54:51.596Z,13.2744
2024-04-07T20:05:02.692Z,13.2738
2024-04-07T20:15:13.606Z,13.2617
2024-04-07T20:25:25.074Z,13.2521
2024-04-07T20:35:36.209Z,13.2473
2024-04-07T20:45:46.944Z,13.2360
2024-04-07T20:55:57.845Z,13.2227
2024-04-07T21:06:08.798Z,13.2094
2024-04-07T21:16:19.526Z,13.1981
2024-04-07T21:26:30.644Z,13.1806
2024-04-07T21:36:41.681Z,13.1660
2024-04-07T21:46:52.679Z,13.1521
2024-04-07T21:57:03.664Z,13.1390
2024-04-07T22:07:14.469Z,13.1229
2024-04-07T22:17:25.409Z,13.1031
2024-04-07T22:27:36.332Z,13.0906
2024-04-07T22:37:47.463Z,13.0677
2024-04-07T22:47:57.937Z,13.0510
2024-04-07T22:58:08.963Z,13.0329
2024-04-07T23:08:20.172Z,13.0233
2024-04-07T23:18:31.489Z,13.0017
2024-04-07T23:28:42.243Z,12.9833
2024-04-07T23:38:53.005Z,12.9646
2024-04-07T23:49:04.093Z,12.9467
2024-04-07T23:59:15.011Z,12.9306
